sensor_id;sensor_type;location;lat;lon;timestamp;temperature;humidity
39525;DHT22;25203;50.754;6.978;2023-11-21T00:00:59;8.70;99.90
39525;DHT22;25203;50.754;6.978;2023-11-21T00:03:04;8.70;99.90
39525;DHT22;25203;50.754;6.978;2023-11-21T00:05:04;8.70;99.90
39525;DHT22;25203;50.754;6.978;2023-11-21T00:07:05;8.70;99.90
39525;DHT22;25203;50.754;6.978;2023-11-21T00:09:06;8.70;99.90
39525;DHT22;25203;50.754;6.978;2023-11-21T00:11:08;8.70;99.90
39525;DHT22;25203;50.754;6.978;2023-11-21T00:13:09;8.70;99.90
39525;DHT22;25203;50.754;6.978;2023-11-21T00:15:12;8.70;99.90
39525;DHT22;25203;50.754;6.978;2023-11-21T00:17:13;8.70;99.90
39525;DHT22;25203;50.754;6.978;2023-11-21T00:19:14;8.70;99.90
39525;DHT22;25203;50.754;6.978;2023-11-21T00:21:14;8.70;99.90
39525;DHT22;25203;50.754;6.978;2023-11-21T00:23:15;8.70;99.90
39525;DHT22;25203;50.754;6.978;2023-11-21T00:25:15;8.70;99.90
39525;DHT22;25203;50.754;6.978;2023-11-21T00:27:18;8.70;99.90
39525;DHT22;25203;50.754;6.978;2023-11-21T00:29:18;8.70;99.90
39525;DHT22;25203;50.754;6.978;2023-11-21T00:31:19;8.70;99.90
39525;DHT22;25203;50.754;6.978;2023-11-21T00:33:19;8.70;99.90
39525;DHT22;25203;50.754;6.978;2023-11-21T00:35:20;8.70;99.90
39525;DHT22;25203;50.754;6.978;2023-11-21T00:37:20;8.70;99.90
39525;DHT22;25203;50.754;6.978;2023-11-21T00:39:21;8.70;99.90
39525;DHT22;25203;50.754;6.978;2023-11-21T00:41:22;8.70;99.90
39525;DHT22;25203;50.754;6.978;2023-11-21T00:43:22;8.70;99.90
39525;DHT22;25203;50.754;6.978;2023-11-21T00:45:24;8.70;99.90
39525;DHT22;25203;50.754;6.978;2023-11-21T00:47:24;8.70;99.90
39525;DHT22;25203;50.754;6.978;2023-11-21T00:49:25;8.70;99.90
39525;DHT22;25203;50.754;6.978;2023-11-21T00:51:25;8.70;99.90
39525;DHT22;25203;50.754;6.978;2023-11-21T00:53:26;8.70;99.90
39525;DHT22;25203;50.754;6.978;2023-11-21T00:55:27;8.70;99.90
39525;DHT22;25203;50.754;6.978;2023-11-21T00:57:28;8.60;99.90
39525;DHT22;25203;50.754;6.978;2023-11-21T00:59:29;8.60;99.90
39525;DHT22;25203;50.754;6.978;2023-11-21T01:01:30;8.60;99.90
39525;DHT22;25203;50.754;6.978;2023-11-21T01:03:31;8.60;99.90
39525;DHT22;25203;50.754;6.978;2023-11-21T01:05:32;8.60;99.90
39525;DHT22;25203;50.754;6.978;2023-11-21T01:07:32;8.60;99.90
39525;DHT22;25203;50.754;6.978;2023-11-21T01:09:33;8.60;99.90
39525;DHT22;25203;50.754;6.978;2023-11-21T01:11:36;8.60;99.90
39525;DHT22;25203;50.754;6.978;2023-11-21T01:13:39;8.60;99.90
39525;DHT22;25203;50.754;6.978;2023-11-21T01:15:40;8.60;99.90
39525;DHT22;25203;50.754;6.978;2023-11-21T01:17:41;8.60;99.90
39525;DHT22;25203;50.754;6.978;2023-11-21T01:19:41;8.70;99.90
39525;DHT22;25203;50.754;6.978;2023-11-21T01:21:42;8.70;99.90
39525;DHT22;25203;50.754;6.978;2023-11-21T01:23:42;8.70;99.90
39525;DHT22;25203;50.754;6.978;2023-11-21T01:25:43;8.70;99.90
39525;DHT22;25203;50.754;6.978;2023-11-21T01:27:43;8.60;99.90
39525;DHT22;25203;50.754;6.978;2023-11-21T01:29:44;8.70;99.90
39525;DHT22;25203;50.754;6.978;2023-11-21T01:31:45;8.70;99.90
39525;DHT22;25203;50.754;6.978;2023-11-21T01:33:45;8.70;99.90
39525;DHT22;25203;50.754;6.978;2023-11-21T01:35:46;8.70;99.90
39525;DHT22;25203;50.754;6.978;2023-11-21T01:37:46;8.70;99.90
39525;DHT22;25203;50.754;6.978;2023-11-21T01:39:48;8.70;99.90
39525;DHT22;25203;50.754;6.978;2023-11-21T01:41:52;8.70;99.90
39525;DHT22;25203;50.754;6.978;2023-11-21T01:43:52;8.70;99.90
39525;DHT22;25203;50.754;6.978;2023-11-21T01:45:54;8.70;99.90
39525;DHT22;25203;50.754;6.978;2023-11-21T01:47:57;8.70;99.90
39525;DHT22;25203;50.754;6.978;2023-11-21T01:49:59;8.70;99.90
39525;DHT22;25203;50.754;6.978;2023-11-21T01:52:00;8.60;99.90
39525;DHT22;25203;50.754;6.978;2023-11-21T01:54:00;8.60;99.90
39525;DHT22;25203;50.754;6.978;2023-11-21T01:56:01;8.60;99.90
39525;DHT22;25203;50.754;6.978;2023-11-21T01:58:02;8.60;99.90
39525;DHT22;25203;50.754;6.978;2023-11-21T02:00:03;8.60;99.90
39525;DHT22;25203;50.754;6.978;2023-11-21T02:02:15;8.60;99.90
39525;DHT22;25203;50.754;6.978;2023-11-21T02:04:17;8.60;99.90
39525;DHT22;25203;50.754;6.978;2023-11-21T02:06:18;8.60;99.90
39525;DHT22;25203;50.754;6.978;2023-11-21T02:08:19;8.60;99.90
39525;DHT22;25203;50.754;6.978;2023-11-21T02:10:20;8.60;99.90
39525;DHT22;25203;50.754;6.978;2023-11-21T02:12:23;8.60;99.90
39525;DHT22;25203;50.754;6.978;2023-11-21T02:14:27;8.60;99.90
39525;DHT22;25203;50.754;6.978;2023-11-21T02:16:28;8.60;99.90
39525;DHT22;25203;50.754;6.978;2023-11-21T02:18:31;8.60;99.90
39525;DHT22;25203;50.754;6.978;2023-11-21T02:20:32;8.60;99.90
39525;DHT22;25203;50.754;6.978;2023-11-21T02:22:38;8.60;99.90
39525;DHT22;25203;50.754;6.978;2023-11-21T02:24:41;8.60;99.90
39525;DHT22;25203;50.754;6.978;2023-11-21T02:26:42;8.60;99.90
39525;DHT22;25203;50.754;6.978;2023-11-21T02:28:43;8.60;99.90
39525;DHT22;25203;50.754;6.978;2023-11-21T02:30:43;8.60;99.90
39525;DHT22;25203;50.754;6.978;2023-11-21T02:32:44;8.60;99.90
39525;DHT22;25203;50.754;6.978;2023-11-21T02:34:45;8.60;99.90
39525;DHT22;25203;50.754;6.978;2023-11-21T02:36:46;8.60;99.90
39525;DHT22;25203;50.754;6.978;2023-11-21T02:38:49;8.60;99.90
39525;DHT22;25203;50.754;6.978;2023-11-21T02:40:50;8.50;99.90
39525;DHT22;25203;50.754;6.978;2023-11-21T02:42:51;8.50;99.90
39525;DHT22;25203;50.754;6.978;2023-11-21T02:44:52;8.50;99.90
39525;DHT22;25203;50.754;6.978;2023-11-21T02:46:52;8.50;99.90
39525;DHT22;25203;50.754;6.978;2023-11-21T02:48:53;8.50;99.90
39525;DHT22;25203;50.754;6.978;2023-11-21T02:50:54;8.50;99.90
39525;DHT22;25203;50.754;6.978;2023-11-21T02:52:55;8.50;99.90
39525;DHT22;25203;50.754;6.978;2023-11-21T02:54:58;8.40;99.90
39525;DHT22;25203;50.754;6.978;2023-11-21T02:56:58;8.30;99.90
39525;DHT22;25203;50.754;6.978;2023-11-21T02:59:00;8.30;99.90
39525;DHT22;25203;50.754;6.978;2023-11-21T03:01:00;8.30;99.90
39525;DHT22;25203;50.754;6.978;2023-11-21T03:03:02;8.30;99.90
39525;DHT22;25203;50.754;6.978;2023-11-21T03:05:05;8.30;99.90
39525;DHT22;25203;50.754;6.978;2023-11-21T03:07:06;8.30;99.90
39525;DHT22;25203;50.754;6.978;2023-11-21T03:09:06;8.30;99.90
39525;DHT22;25203;50.754;6.978;2023-11-21T03:11:07;8.30;99.90
39525;DHT22;25203;50.754;6.978;2023-11-21T03:13:08;8.30;99.90
39525;DHT22;25203;50.754;6.978;2023-11-21T03:15:09;8.30;99.90
39525;DHT22;25203;50.754;6.978;2023-11-21T03:17:10;8.30;99.90
39525;DHT22;25203;50.754;6.978;2023-11-21T03:19:11;8.30;99.90
39525;DHT22;25203;50.754;6.978;2023-11-21T03:21:12;8.20;99.90
39525;DHT22;25203;50.754;6.978;2023-11-21T03:23:13;8.20;99.90
39525;DHT22;25203;50.754;6.978;2023-11-21T03:25:14;8.20;99.90
39525;DHT22;25203;50.754;6.978;2023-11-21T03:27:15;8.20;99.90
39525;DHT22;25203;50.754;6.978;2023-11-21T03:29:15;8.20;99.90
39525;DHT22;25203;50.754;6.978;2023-11-21T03:31:16;8.20;99.90
39525;DHT22;25203;50.754;6.978;2023-11-21T03:33:19;8.20;99.90
39525;DHT22;25203;50.754;6.978;2023-11-21T03:35:19;8.20;99.90
39525;DHT22;25203;50.754;6.978;2023-11-21T03:37:21;8.30;99.90
39525;DHT22;25203;50.754;6.978;2023-11-21T03:39:22;8.30;99.90
39525;DHT22;25203;50.754;6.978;2023-11-21T03:41:23;8.30;99.90
39525;DHT22;25203;50.754;6.978;2023-11-21T03:43:23;8.20;99.90
39525;DHT22;25203;50.754;6.978;2023-11-21T03:45:25;8.20;99.90
39525;DHT22;25203;50.754;6.978;2023-11-21T03:47:28;8.20;99.90
39525;DHT22;25203;50.754;6.978;2023-11-21T03:49:29;8.20;99.90
39525;DHT22;25203;50.754;6.978;2023-11-21T03:51:29;8.20;99.90
39525;DHT22;25203;50.754;6.978;2023-11-21T03:53:30;8.20;99.90
39525;DHT22;25203;50.754;6.978;2023-11-21T03:55:31;8.20;99.90
39525;DHT22;25203;50.754;6.978;2023-11-21T03:57:32;8.20;99.90
39525;DHT22;25203;50.754;6.978;2023-11-21T03:59:32;8.20;99.90
39525;DHT22;25203;50.754;6.978;2023-11-21T04:01:33;8.20;99.90
39525;DHT22;25203;50.754;6.978;2023-11-21T04:03:33;8.20;99.90
39525;DHT22;25203;50.754;6.978;2023-11-21T04:05:34;8.20;99.90
39525;DHT22;25203;50.754;6.978;2023-11-21T04:07:35;8.20;99.90
39525;DHT22;25203;50.754;6.978;2023-11-21T04:09:36;8.20;99.90
39525;DHT22;25203;50.754;6.978;2023-11-21T04:11:36;8.20;99.90
39525;DHT22;25203;50.754;6.978;2023-11-21T04:13:38;8.20;99.90
39525;DHT22;25203;50.754;6.978;2023-11-21T04:15:39;8.20;99.90
39525;DHT22;25203;50.754;6.978;2023-11-21T04:17:40;8.20;99.90
39525;DHT22;25203;50.754;6.978;2023-11-21T04:19:41;8.20;99.90
39525;DHT22;25203;50.754;6.978;2023-11-21T04:21:42;8.20;99.90
39525;DHT22;25203;50.754;6.978;2023-11-21T04:23:43;8.20;99.90
39525;DHT22;25203;50.754;6.978;2023-11-21T04:25:43;8.20;99.90
39525;DHT22;25203;50.754;6.978;2023-11-21T04:27:45;8.20;99.90
39525;DHT22;25203;50.754;6.978;2023-11-21T04:29:46;8.20;99.90
39525;DHT22;25203;50.754;6.978;2023-11-21T04:31:47;8.20;99.90
39525;DHT22;25203;50.754;6.978;2023-11-21T04:33:49;8.10;99.90
39525;DHT22;25203;50.754;6.978;2023-11-21T04:35:50;8.10;99.90
39525;DHT22;25203;50.754;6.978;2023-11-21T04:37:50;8.10;99.90
39525;DHT22;25203;50.754;6.978;2023-11-21T04:39:51;8.10;99.90
39525;DHT22;25203;50.754;6.978;2023-11-21T04:41:52;8.10;99.90
39525;DHT22;25203;50.754;6.978;2023-11-21T04:43:52;8.10;99.90
39525;DHT22;25203;50.754;6.978;2023-11-21T04:45:54;8.10;99.90
39525;DHT22;25203;50.754;6.978;2023-11-21T04:47:55;8.00;99.90
39525;DHT22;25203;50.754;6.978;2023-11-21T04:49:56;8.00;99.90
39525;DHT22;25203;50.754;6.978;2023-11-21T04:51:57;8.00;99.90
39525;DHT22;25203;50.754;6.978;2023-11-21T04:53:57;8.00;99.90
39525;DHT22;25203;50.754;6.978;2023-11-21T04:55:58;8.00;99.90
39525;DHT22;25203;50.754;6.978;2023-11-21T04:57:59;8.00;99.90
39525;DHT22;25203;50.754;6.978;2023-11-21T04:59:59;8.00;99.90
39525;DHT22;25203;50.754;6.978;2023-11-21T05:02:00;8.00;99.90
39525;DHT22;25203;50.754;6.978;2023-11-21T05:04:00;8.00;99.90
39525;DHT22;25203;50.754;6.978;2023-11-21T05:06:01;8.00;99.90
39525;DHT22;25203;50.754;6.978;2023-11-21T05:08:02;8.00;99.90
39525;DHT22;25203;50.754;6.978;2023-11-21T05:10:07;8.00;99.90
39525;DHT22;25203;50.754;6.978;2023-11-21T05:12:11;8.00;99.90
39525;DHT22;25203;50.754;6.978;2023-11-21T05:14:12;8.00;99.90
39525;DHT22;25203;50.754;6.978;2023-11-21T05:16:13;8.00;99.90
39525;DHT22;25203;50.754;6.978;2023-11-21T05:18:14;7.90;99.90
39525;DHT22;25203;50.754;6.978;2023-11-21T05:20:16;7.80;99.90
39525;DHT22;25203;50.754;6.978;2023-11-21T05:22:23;7.80;99.90
39525;DHT22;25203;50.754;6.978;2023-11-21T05:24:25;7.80;99.90
39525;DHT22;25203;50.754;6.978;2023-11-21T05:26:25;7.70;99.90
39525;DHT22;25203;50.754;6.978;2023-11-21T05:28:26;7.80;99.90
39525;DHT22;25203;50.754;6.978;2023-11-21T05:30:27;7.70;99.90
39525;DHT22;25203;50.754;6.978;2023-11-21T05:32:27;7.70;99.90
39525;DHT22;25203;50.754;6.978;2023-11-21T05:34:28;7.70;99.90
39525;DHT22;25203;50.754;6.978;2023-11-21T05:36:28;7.70;99.90
39525;DHT22;25203;50.754;6.978;2023-11-21T05:38:29;7.60;99.90
39525;DHT22;25203;50.754;6.978;2023-11-21T05:40:30;7.60;99.90
39525;DHT22;25203;50.754;6.978;2023-11-21T05:42:30;7.60;99.90
39525;DHT22;25203;50.754;6.978;2023-11-21T05:44:31;7.60;99.90
39525;DHT22;25203;50.754;6.978;2023-11-21T05:46:32;7.50;99.90
39525;DHT22;25203;50.754;6.978;2023-11-21T05:48:32;7.50;99.90
39525;DHT22;25203;50.754;6.978;2023-11-21T05:50:33;7.50;99.90
39525;DHT22;25203;50.754;6.978;2023-11-21T05:52:33;7.50;99.90
39525;DHT22;25203;50.754;6.978;2023-11-21T05:54:34;7.40;99.90
39525;DHT22;25203;50.754;6.978;2023-11-21T05:56:35;7.40;99.90
39525;DHT22;25203;50.754;6.978;2023-11-21T05:58:35;7.50;99.90
39525;DHT22;25203;50.754;6.978;2023-11-21T06:00:36;7.50;99.90
39525;DHT22;25203;50.754;6.978;2023-11-21T06:02:38;7.50;99.90
39525;DHT22;25203;50.754;6.978;2023-11-21T06:04:39;7.50;99.90
39525;DHT22;25203;50.754;6.978;2023-11-21T06:06:40;7.50;99.90
39525;DHT22;25203;50.754;6.978;2023-11-21T06:08:41;7.50;99.90
39525;DHT22;25203;50.754;6.978;2023-11-21T06:10:41;7.50;99.90
39525;DHT22;25203;50.754;6.978;2023-11-21T06:12:42;7.50;99.90
39525;DHT22;25203;50.754;6.978;2023-11-21T06:14:43;7.50;99.90
39525;DHT22;25203;50.754;6.978;2023-11-21T06:16:43;7.60;99.90
39525;DHT22;25203;50.754;6.978;2023-11-21T06:18:45;7.60;99.90
39525;DHT22;25203;50.754;6.978;2023-11-21T06:20:46;7.70;99.90
39525;DHT22;25203;50.754;6.978;2023-11-21T06:22:48;7.70;99.90
39525;DHT22;25203;50.754;6.978;2023-11-21T06:24:49;7.60;99.90
39525;DHT22;25203;50.754;6.978;2023-11-21T06:26:50;7.70;99.90
39525;DHT22;25203;50.754;6.978;2023-11-21T06:28:50;7.70;99.90
39525;DHT22;25203;50.754;6.978;2023-11-21T06:30:51;7.70;99.90
39525;DHT22;25203;50.754;6.978;2023-11-21T06:32:53;7.60;99.90
39525;DHT22;25203;50.754;6.978;2023-11-21T06:34:54;7.60;99.90
39525;DHT22;25203;50.754;6.978;2023-11-21T06:36:55;7.60;99.90
39525;DHT22;25203;50.754;6.978;2023-11-21T06:38:55;7.60;99.90
39525;DHT22;25203;50.754;6.978;2023-11-21T06:40:56;7.60;99.90
39525;DHT22;25203;50.754;6.978;2023-11-21T06:42:58;7.60;99.90
39525;DHT22;25203;50.754;6.978;2023-11-21T06:44:59;7.60;99.90
39525;DHT22;25203;50.754;6.978;2023-11-21T06:46:59;7.60;99.90
39525;DHT22;25203;50.754;6.978;2023-11-21T06:49:00;7.60;99.90
39525;DHT22;25203;50.754;6.978;2023-11-21T06:51:01;7.60;99.90
39525;DHT22;25203;50.754;6.978;2023-11-21T06:53:01;7.60;99.90
39525;DHT22;25203;50.754;6.978;2023-11-21T06:55:04;7.60;99.90
39525;DHT22;25203;50.754;6.978;2023-11-21T06:57:05;7.60;99.90
39525;DHT22;25203;50.754;6.978;2023-11-21T06:59:06;7.60;99.90
39525;DHT22;25203;50.754;6.978;2023-11-21T07:01:07;7.60;99.90
39525;DHT22;25203;50.754;6.978;2023-11-21T07:03:07;7.70;99.90
39525;DHT22;25203;50.754;6.978;2023-11-21T07:05:08;7.60;99.90
39525;DHT22;25203;50.754;6.978;2023-11-21T07:07:08;7.70;99.90
39525;DHT22;25203;50.754;6.978;2023-11-21T07:09:09;7.70;99.90
39525;DHT22;25203;50.754;6.978;2023-11-21T07:11:11;7.70;99.90
39525;DHT22;25203;50.754;6.978;2023-11-21T07:13:12;7.70;99.90
39525;DHT22;25203;50.754;6.978;2023-11-21T07:15:13;7.90;99.90
39525;DHT22;25203;50.754;6.978;2023-11-21T07:17:13;8.00;99.90
39525;DHT22;25203;50.754;6.978;2023-11-21T07:19:14;7.90;99.90
39525;DHT22;25203;50.754;6.978;2023-11-21T07:21:15;7.90;99.90
39525;DHT22;25203;50.754;6.978;2023-11-21T07:23:16;7.90;99.90
39525;DHT22;25203;50.754;6.978;2023-11-21T07:25:17;7.90;99.90
39525;DHT22;25203;50.754;6.978;2023-11-21T07:27:17;8.00;99.90
39525;DHT22;25203;50.754;6.978;2023-11-21T07:29:18;8.10;99.90
39525;DHT22;25203;50.754;6.978;2023-11-21T07:31:19;8.10;99.90
39525;DHT22;25203;50.754;6.978;2023-11-21T07:33:20;8.10;99.90
39525;DHT22;25203;50.754;6.978;2023-11-21T07:35:21;8.20;99.90
39525;DHT22;25203;50.754;6.978;2023-11-21T07:37:22;8.20;99.90
39525;DHT22;25203;50.754;6.978;2023-11-21T07:39:23;8.20;99.90
39525;DHT22;25203;50.754;6.978;2023-11-21T07:41:23;8.30;99.90
39525;DHT22;25203;50.754;6.978;2023-11-21T07:43:24;8.30;99.90
39525;DHT22;25203;50.754;6.978;2023-11-21T07:45:26;8.30;99.90
39525;DHT22;25203;50.754;6.978;2023-11-21T07:47:28;8.30;99.90
39525;DHT22;25203;50.754;6.978;2023-11-21T07:49:28;8.40;99.90
39525;DHT22;25203;50.754;6.978;2023-11-21T07:51:29;8.40;99.90
39525;DHT22;25203;50.754;6.978;2023-11-21T07:53:29;8.40;99.90
39525;DHT22;25203;50.754;6.978;2023-11-21T07:55:30;8.40;99.90
39525;DHT22;25203;50.754;6.978;2023-11-21T07:57:32;8.40;99.90
39525;DHT22;25203;50.754;6.978;2023-11-21T07:59:33;8.50;99.90
39525;DHT22;25203;50.754;6.978;2023-11-21T08:01:33;8.40;99.90
39525;DHT22;25203;50.754;6.978;2023-11-21T08:03:34;8.50;99.90
39525;DHT22;25203;50.754;6.978;2023-11-21T08:05:35;8.50;99.90
39525;DHT22;25203;50.754;6.978;2023-11-21T08:07:35;8.50;99.90
39525;DHT22;25203;50.754;6.978;2023-11-21T08:09:36;8.60;99.90
39525;DHT22;25203;50.754;6.978;2023-11-21T08:11:36;8.60;99.90
39525;DHT22;25203;50.754;6.978;2023-11-21T08:13:39;8.60;99.90
39525;DHT22;25203;50.754;6.978;2023-11-21T08:15:40;8.60;99.90
39525;DHT22;25203;50.754;6.978;2023-11-21T08:17:41;8.50;99.90
39525;DHT22;25203;50.754;6.978;2023-11-21T08:19:41;8.50;99.90
39525;DHT22;25203;50.754;6.978;2023-11-21T08:21:42;8.50;99.90
39525;DHT22;25203;50.754;6.978;2023-11-21T08:23:42;8.50;99.90
39525;DHT22;25203;50.754;6.978;2023-11-21T08:25:46;8.60;99.90
39525;DHT22;25203;50.754;6.978;2023-11-21T08:27:47;8.60;99.90
39525;DHT22;25203;50.754;6.978;2023-11-21T08:29:48;8.70;99.90
39525;DHT22;25203;50.754;6.978;2023-11-21T08:31:48;8.80;99.90
39525;DHT22;25203;50.754;6.978;2023-11-21T08:33:49;8.80;99.90
39525;DHT22;25203;50.754;6.978;2023-11-21T08:35:50;8.80;99.90
39525;DHT22;25203;50.754;6.978;2023-11-21T08:37:52;8.80;99.90
39525;DHT22;25203;50.754;6.978;2023-11-21T08:39:53;8.80;99.90
39525;DHT22;25203;50.754;6.978;2023-11-21T08:41:54;8.80;99.90
39525;DHT22;25203;50.754;6.978;2023-11-21T08:43:55;8.90;99.90
39525;DHT22;25203;50.754;6.978;2023-11-21T08:45:56;8.90;99.90
39525;DHT22;25203;50.754;6.978;2023-11-21T08:47:56;8.90;99.90
39525;DHT22;25203;50.754;6.978;2023-11-21T08:49:57;9.00;99.90
39525;DHT22;25203;50.754;6.978;2023-11-21T08:51:59;9.10;99.90
39525;DHT22;25203;50.754;6.978;2023-11-21T08:54:00;9.20;99.90
39525;DHT22;25203;50.754;6.978;2023-11-21T08:56:05;9.20;99.90
39525;DHT22;25203;50.754;6.978;2023-11-21T08:58:06;9.20;99.90
39525;DHT22;25203;50.754;6.978;2023-11-21T09:00:07;9.30;99.90
39525;DHT22;25203;50.754;6.978;2023-11-21T09:02:16;9.40;99.90
39525;DHT22;25203;50.754;6.978;2023-11-21T09:04:17;9.40;99.90
39525;DHT22;25203;50.754;6.978;2023-11-21T09:06:17;9.50;99.90
39525;DHT22;25203;50.754;6.978;2023-11-21T09:08:18;9.60;99.90
39525;DHT22;25203;50.754;6.978;2023-11-21T09:10:18;9.60;99.90
39525;DHT22;25203;50.754;6.978;2023-11-21T09:12:19;9.70;99.90
39525;DHT22;25203;50.754;6.978;2023-11-21T09:14:20;9.70;99.90
39525;DHT22;25203;50.754;6.978;2023-11-21T09:16:21;9.60;99.90
39525;DHT22;25203;50.754;6.978;2023-11-21T09:18:21;9.60;99.90
39525;DHT22;25203;50.754;6.978;2023-11-21T09:20:22;9.70;99.90
39525;DHT22;25203;50.754;6.978;2023-11-21T09:22:23;9.70;99.90
39525;DHT22;25203;50.754;6.978;2023-11-21T09:24:25;9.80;99.90
39525;DHT22;25203;50.754;6.978;2023-11-21T09:26:26;9.80;99.90
39525;DHT22;25203;50.754;6.978;2023-11-21T09:28:27;9.70;99.90
39525;DHT22;25203;50.754;6.978;2023-11-21T09:30:27;9.90;99.90
39525;DHT22;25203;50.754;6.978;2023-11-21T09:32:28;10.00;99.90
39525;DHT22;25203;50.754;6.978;2023-11-21T09:34:30;10.00;99.90
39525;DHT22;25203;50.754;6.978;2023-11-21T09:36:32;10.00;99.90
39525;DHT22;25203;50.754;6.978;2023-11-21T09:38:33;10.00;99.90
39525;DHT22;25203;50.754;6.978;2023-11-21T09:40:36;10.00;99.90
39525;DHT22;25203;50.754;6.978;2023-11-21T09:42:47;9.90;99.90
39525;DHT22;25203;50.754;6.978;2023-11-21T09:45:28;10.00;99.90
39525;DHT22;25203;50.754;6.978;2023-11-21T09:47:29;10.00;99.90
39525;DHT22;25203;50.754;6.978;2023-11-21T09:49:32;10.10;99.90
39525;DHT22;25203;50.754;6.978;2023-11-21T09:51:36;10.00;99.90
39525;DHT22;25203;50.754;6.978;2023-11-21T09:53:42;10.00;99.90
39525;DHT22;25203;50.754;6.978;2023-11-21T09:55:45;10.00;99.90
39525;DHT22;25203;50.754;6.978;2023-11-21T09:57:47;9.90;99.90
39525;DHT22;25203;50.754;6.978;2023-11-21T09:59:52;9.90;99.90
39525;DHT22;25203;50.754;6.978;2023-11-21T10:01:57;9.90;99.90
39525;DHT22;25203;50.754;6.978;2023-11-21T10:03:58;9.90;99.90
39525;DHT22;25203;50.754;6.978;2023-11-21T10:06:00;10.00;99.90
39525;DHT22;25203;50.754;6.978;2023-11-21T10:08:03;10.00;99.90
39525;DHT22;25203;50.754;6.978;2023-11-21T10:10:07;10.00;99.90
39525;DHT22;25203;50.754;6.978;2023-11-21T10:12:10;10.10;99.90
39525;DHT22;25203;50.754;6.978;2023-11-21T10:14:12;10.00;99.90
39525;DHT22;25203;50.754;6.978;2023-11-21T10:16:16;10.10;99.90
39525;DHT22;25203;50.754;6.978;2023-11-21T10:18:22;10.20;99.90
39525;DHT22;25203;50.754;6.978;2023-11-21T10:20:25;10.10;99.90
39525;DHT22;25203;50.754;6.978;2023-11-21T10:22:27;10.20;99.90
39525;DHT22;25203;50.754;6.978;2023-11-21T10:24:27;10.20;99.90
39525;DHT22;25203;50.754;6.978;2023-11-21T10:26:28;10.30;99.90
39525;DHT22;25203;50.754;6.978;2023-11-21T10:28:35;10.30;99.90
39525;DHT22;25203;50.754;6.978;2023-11-21T10:30:38;10.40;99.90
39525;DHT22;25203;50.754;6.978;2023-11-21T10:32:39;10.60;99.90
39525;DHT22;25203;50.754;6.978;2023-11-21T10:34:41;10.60;99.90
39525;DHT22;25203;50.754;6.978;2023-11-21T10:36:42;10.50;99.90
39525;DHT22;25203;50.754;6.978;2023-11-21T10:38:43;10.50;99.90
39525;DHT22;25203;50.754;6.978;2023-11-21T10:40:44;10.40;99.90
39525;DHT22;25203;50.754;6.978;2023-11-21T10:42:46;10.30;99.90
39525;DHT22;25203;50.754;6.978;2023-11-21T10:44:47;10.20;99.90
39525;DHT22;25203;50.754;6.978;2023-11-21T10:46:58;10.20;99.90
39525;DHT22;25203;50.754;6.978;2023-11-21T10:49:01;10.10;99.90
39525;DHT22;25203;50.754;6.978;2023-11-21T10:51:07;10.10;99.90
39525;DHT22;25203;50.754;6.978;2023-11-21T10:53:10;10.10;99.90
39525;DHT22;25203;50.754;6.978;2023-11-21T10:55:19;10.10;99.90
39525;DHT22;25203;50.754;6.978;2023-11-21T10:57:22;10.20;99.90
39525;DHT22;25203;50.754;6.978;2023-11-21T10:59:25;10.20;99.90
39525;DHT22;25203;50.754;6.978;2023-11-21T11:01:27;10.20;99.90
39525;DHT22;25203;50.754;6.978;2023-11-21T11:03:30;10.20;99.90
39525;DHT22;25203;50.754;6.978;2023-11-21T11:05:34;10.20;99.90
39525;DHT22;25203;50.754;6.978;2023-11-21T11:07:37;10.20;99.90
39525;DHT22;25203;50.754;6.978;2023-11-21T11:09:39;10.20;99.90
39525;DHT22;25203;50.754;6.978;2023-11-21T11:11:40;10.30;99.90
39525;DHT22;25203;50.754;6.978;2023-11-21T11:13:47;10.30;99.90
39525;DHT22;25203;50.754;6.978;2023-11-21T11:15:48;10.30;99.90
39525;DHT22;25203;50.754;6.978;2023-11-21T11:17:49;10.40;99.90
39525;DHT22;25203;50.754;6.978;2023-11-21T11:19:50;10.50;99.90
39525;DHT22;25203;50.754;6.978;2023-11-21T11:22:13;10.60;99.90
39525;DHT22;25203;50.754;6.978;2023-11-21T11:26:56;10.60;99.90
39525;DHT22;25203;50.754;6.978;2023-11-21T11:33:41;10.80;99.90
39525;DHT22;25203;50.754;6.978;2023-11-21T11:36:09;10.90;99.90
39525;DHT22;25203;50.754;6.978;2023-11-21T11:38:11;11.00;99.90
39525;DHT22;25203;50.754;6.978;2023-11-21T11:40:12;11.00;99.90
39525;DHT22;25203;50.754;6.978;2023-11-21T11:42:15;10.90;99.90
39525;DHT22;25203;50.754;6.978;2023-11-21T11:44:47;10.90;99.90
39525;DHT22;25203;50.754;6.978;2023-11-21T11:46:53;10.90;99.90
39525;DHT22;25203;50.754;6.978;2023-11-21T11:49:03;10.90;99.90
39525;DHT22;25203;50.754;6.978;2023-11-21T11:51:11;10.80;99.90
39525;DHT22;25203;50.754;6.978;2023-11-21T11:53:15;10.70;99.90
39525;DHT22;25203;50.754;6.978;2023-11-21T11:55:23;10.70;99.90
39525;DHT22;25203;50.754;6.978;2023-11-21T11:57:24;10.70;99.90
39525;DHT22;25203;50.754;6.978;2023-11-21T11:59:25;10.80;99.90
39525;DHT22;25203;50.754;6.978;2023-11-21T12:01:27;10.80;99.90
39525;DHT22;25203;50.754;6.978;2023-11-21T12:03:27;10.70;99.90
39525;DHT22;25203;50.754;6.978;2023-11-21T12:05:28;10.70;99.90
39525;DHT22;25203;50.754;6.978;2023-11-21T12:07:49;10.70;99.90
39525;DHT22;25203;50.754;6.978;2023-11-21T12:09:50;10.70;99.90
39525;DHT22;25203;50.754;6.978;2023-11-21T12:11:51;10.70;99.90
39525;DHT22;25203;50.754;6.978;2023-11-21T12:13:52;10.60;99.90
39525;DHT22;25203;50.754;6.978;2023-11-21T12:15:53;10.60;99.90
39525;DHT22;25203;50.754;6.978;2023-11-21T12:17:55;10.60;99.90
39525;DHT22;25203;50.754;6.978;2023-11-21T12:20:02;10.60;99.90
39525;DHT22;25203;50.754;6.978;2023-11-21T12:22:05;10.60;99.90
39525;DHT22;25203;50.754;6.978;2023-11-21T12:24:05;10.50;99.90
39525;DHT22;25203;50.754;6.978;2023-11-21T12:26:09;10.50;99.90
39525;DHT22;25203;50.754;6.978;2023-11-21T12:28:10;10.50;99.90
39525;DHT22;25203;50.754;6.978;2023-11-21T12:30:13;10.50;99.90
39525;DHT22;25203;50.754;6.978;2023-11-21T12:32:14;10.50;99.90
39525;DHT22;25203;50.754;6.978;2023-11-21T12:34:18;10.60;99.90
39525;DHT22;25203;50.754;6.978;2023-11-21T12:36:19;10.70;99.90
39525;DHT22;25203;50.754;6.978;2023-11-21T12:38:20;10.70;99.90
39525;DHT22;25203;50.754;6.978;2023-11-21T12:40:21;10.60;99.90
39525;DHT22;25203;50.754;6.978;2023-11-21T12:42:23;10.70;99.90
39525;DHT22;25203;50.754;6.978;2023-11-21T12:44:24;10.70;99.90
39525;DHT22;25203;50.754;6.978;2023-11-21T12:46:25;10.70;99.90
39525;DHT22;25203;50.754;6.978;2023-11-21T12:48:29;10.80;99.90
39525;DHT22;25203;50.754;6.978;2023-11-21T12:50:32;10.90;99.90
39525;DHT22;25203;50.754;6.978;2023-11-21T12:52:33;11.00;99.90
39525;DHT22;25203;50.754;6.978;2023-11-21T12:54:34;10.90;99.90
39525;DHT22;25203;50.754;6.978;2023-11-21T12:56:39;11.00;99.90
39525;DHT22;25203;50.754;6.978;2023-11-21T12:58:40;11.00;99.90
39525;DHT22;25203;50.754;6.978;2023-11-21T13:00:47;11.00;99.90
39525;DHT22;25203;50.754;6.978;2023-11-21T13:02:48;11.10;99.90
39525;DHT22;25203;50.754;6.978;2023-11-21T13:04:52;11.20;99.90
39525;DHT22;25203;50.754;6.978;2023-11-21T13:06:53;11.20;99.90